LIMJ Airport Information

Runway Information
Runway 10 Length 9564 ft width 148 ft
Elevation 9 ft Threshold 0 ft Heading 105
Runway 28 Length 9564 ft Width 148 ft
Elevation 12 ft Threshold 528 ft Heading 285
Airport Frequencies
Type APP Name APP Frequency 119.6 MHZ
Type ATIS Name ATIS Frequency 122.825 MHZ
Type TWR Name TWR Frequency 118.6 MHZ
Airport Navaids
Type VOR-DME Name Genova Frequency 112800 KHZ
Type NDB Name Genova Frequency 318 KHZ
Type VOR-DME Name Genova Sestri Frequency 108600 KHZ
Airport Weather Information & NOTAM
ADDS - METARS form results

(1801 UTC 29 May 2020)
Data provider http://aviationweather.gov/metar/data/
 
METAR text: LIMJ 291750Z 24005KT CAVOK 19/12 Q1018
Conditions at: LIMJ (GENOVA/SESTRI , IT) observed 1750 UTC 29 May 2020
Temperature: 19.0°C (66°F)
Dewpoint: 12.0°C (54°F) [RH = 64%]
Pressure (altimeter): 30.06 inches Hg (1018.0 mb)
Winds: from the WSW (240 degrees) at 6 MPH (5 knots; 2.6 m/s)
Visibility: 6 or more miles (10+ km)
Ceiling: ceiling and visibility are OK
Clouds: unknown
Weather: no significant weather observed at this time

METAR text: LIMJ 291720Z 23004KT 200V260 CAVOK 19/12 Q1018
Conditions at: LIMJ (GENOVA/SESTRI , IT) observed 1720 UTC 29 May 2020
Temperature: 19.0°C (66°F)
Dewpoint: 12.0°C (54°F) [RH = 64%]
Pressure (altimeter): 30.06 inches Hg (1018.0 mb)
Winds: from the SW (230 degrees) at 5 MPH (4 knots; 2.1 m/s)
Visibility: 6 or more miles (10+ km)
Ceiling: ceiling and visibility are OK
Clouds: unknown
Weather: no significant weather observed at this time

Forecast for: LIMJ (GENOVA/SESTRI , IT)
Text: TAF LIMJ 291700Z 2918/3018 01007KT 9999 SCT030
Forecast period: 1800 UTC 29 May 2020 to 1000 UTC 30 May 2020
Forecast type: FROM: standard forecast or significant change
Winds: from the N (10 degrees) at 8 MPH (7 knots; 3.6 m/s)
Visibility: 6 or more miles 10+ km)
Ceiling: at least 12,000 feet AGL
Clouds: scattered clouds at 3000 feet AGL
Weather: no significant weather forecast for this period
Text: BECMG 3010/3012 18010KT
Forecast period: 1000 to 1800 UTC 30 May 2020
Forecast type: BECOMING: Conditions expected to become as follows by 1200 UTC 30 May 2020
Winds: from the S (180 degrees) at 12 MPH (10 knots; 5.1 m/s)
Visibility: 6 or more miles 10+ km)
Ceiling: at least 12,000 feet AGL
Clouds: scattered clouds at 3000 feet AGL
Weather: no significant weather forecast for this period